createdAt,value
2023-01-17T00:00:30.029Z,20.34
2023-01-17T00:02:57.215Z,20.32
2023-01-17T00:05:42.445Z,20.33
2023-01-17T00:08:49.691Z,20.33
2023-01-17T00:11:16.024Z,20.32
2023-01-17T00:13:42.579Z,20.30
2023-01-17T00:16:08.935Z,20.30
2023-01-17T00:18:35.265Z,20.29
2023-01-17T00:21:20.442Z,20.27
2023-01-17T00:24:05.416Z,20.28
2023-01-17T00:26:31.733Z,20.27
2023-01-17T00:28:58.017Z,20.26
2023-01-17T00:31:24.358Z,20.27
2023-01-17T00:33:50.691Z,20.25
2023-01-17T00:36:16.977Z,20.25
2023-01-17T00:38:43.271Z,20.24
2023-01-17T00:41:10.282Z,20.23
2023-01-17T00:43:55.336Z,20.21
2023-01-17T00:46:40.236Z,20.21
2023-01-17T00:49:25.098Z,20.22
2023-01-17T00:52:10.303Z,20.22
2023-01-17T00:54:55.381Z,20.22
2023-01-17T00:57:40.242Z,20.22
2023-01-17T01:00:25.627Z,20.24
2023-01-17T01:03:10.728Z,20.23
2023-01-17T01:05:55.844Z,20.25
2023-01-17T01:08:44.311Z,20.26
2023-01-17T01:11:32.547Z,20.28
2023-01-17T01:14:17.385Z,20.26
2023-01-17T01:17:02.473Z,20.27
2023-01-17T01:19:47.581Z,20.26
2023-01-17T01:22:32.428Z,20.25
2023-01-17T01:25:17.197Z,20.25
2023-01-17T01:28:02.306Z,20.24
2023-01-17T01:30:47.361Z,20.24
2023-01-17T01:33:20.002Z,20.24
2023-01-17T01:35:47.198Z,20.23
2023-01-17T01:38:13.531Z,20.22
2023-01-17T01:40:43.210Z,20.22
2023-01-17T01:43:09.534Z,20.21
2023-01-17T01:45:35.928Z,20.20
2023-01-17T01:48:02.744Z,20.20
2023-01-17T01:50:29.167Z,20.20
2023-01-17T01:52:55.837Z,20.19
2023-01-17T01:55:23.770Z,20.18
2023-01-17T01:57:51.175Z,20.18
2023-01-17T02:00:18.633Z,20.18
2023-01-17T02:02:45.642Z,20.17
2023-01-17T02:05:11.969Z,20.16
2023-01-17T02:07:39.910Z,20.15
2023-01-17T02:10:06.244Z,20.15
2023-01-17T02:12:32.575Z,20.14
2023-01-17T02:14:58.895Z,20.14
2023-01-17T02:17:38.191Z,20.13
2023-01-17T02:20:16.836Z,20.12
2023-01-17T02:23:07.475Z,20.11
2023-01-17T02:25:40.211Z,20.12
2023-01-17T02:28:15.617Z,20.10
2023-01-17T02:30:44.338Z,20.09
2023-01-17T02:33:19.798Z,20.07
2023-01-17T02:35:54.918Z,20.08
2023-01-17T02:38:24.159Z,20.08
2023-01-17T02:40:54.757Z,20.07
2023-01-17T02:43:21.079Z,20.05
2023-01-17T02:45:47.433Z,20.06
2023-01-17T02:48:14.286Z,20.06
2023-01-17T02:50:47.653Z,20.04
2023-01-17T02:53:27.503Z,20.04
2023-01-17T02:59:50.795Z,20.03
2023-01-17T03:02:20.174Z,20.01
2023-01-17T03:04:48.837Z,20.01
2023-01-17T03:07:17.420Z,20.00
2023-01-17T03:09:45.753Z,20.01
2023-01-17T03:12:12.082Z,20.00
2023-01-17T03:14:38.417Z,20.01
2023-01-17T03:17:04.731Z,20.03
2023-01-17T03:19:31.342Z,20.04
2023-01-17T03:21:57.657Z,20.03
2023-01-17T03:24:23.994Z,20.05
2023-01-17T03:26:50.325Z,20.07
2023-01-17T03:29:16.700Z,20.08
2023-01-17T03:31:43.045Z,20.07
2023-01-17T03:34:09.459Z,20.08
2023-01-17T03:36:35.786Z,20.07
2023-01-17T03:39:02.890Z,20.09
2023-01-17T03:41:29.242Z,20.09
2023-01-17T03:43:55.595Z,20.10
2023-01-17T03:46:25.874Z,20.11
2023-01-17T03:48:52.205Z,20.13
2023-01-17T03:51:18.540Z,20.13
2023-01-17T03:53:46.878Z,20.15
2023-01-17T03:56:13.339Z,20.16
2023-01-17T03:58:40.629Z,20.16
2023-01-17T04:01:07.090Z,20.15
2023-01-17T04:03:33.710Z,20.15
2023-01-17T04:06:00.092Z,20.15
2023-01-17T04:08:26.455Z,20.16
2023-01-17T04:10:52.774Z,20.16
2023-01-17T04:13:19.115Z,20.16
2023-01-17T04:15:45.895Z,20.18
2023-01-17T04:18:12.226Z,20.18
2023-01-17T04:20:39.094Z,20.18
2023-01-17T04:23:05.417Z,20.18
2023-01-17T04:25:31.841Z,20.17
2023-01-17T04:27:58.411Z,20.17
2023-01-17T04:30:24.725Z,20.17
2023-01-17T04:32:51.052Z,20.17
2023-01-17T04:35:17.379Z,20.17
2023-01-17T04:37:43.710Z,20.18
2023-01-17T04:40:10.359Z,20.19
2023-01-17T04:42:36.678Z,20.19
2023-01-17T04:45:03.048Z,20.21
2023-01-17T04:47:29.372Z,20.21
2023-01-17T04:49:55.746Z,20.21
2023-01-17T04:52:22.111Z,20.23
2023-01-17T04:54:49.478Z,20.22
2023-01-17T04:57:16.408Z,20.21
2023-01-17T04:59:42.970Z,20.20
2023-01-17T05:02:09.360Z,20.19
2023-01-17T05:04:35.706Z,20.20
2023-01-17T05:07:02.040Z,20.22
2023-01-17T05:09:28.361Z,20.21
2023-01-17T05:11:55.660Z,20.21
2023-01-17T05:14:25.395Z,20.22
2023-01-17T05:16:55.291Z,20.21
2023-01-17T05:19:21.811Z,20.21
2023-01-17T05:21:48.128Z,20.22
2023-01-17T05:24:14.467Z,20.22
2023-01-17T05:26:41.661Z,20.22
2023-01-17T05:29:08.020Z,20.26
2023-01-17T05:31:34.335Z,20.29
2023-01-17T05:34:00.668Z,20.28
2023-01-17T05:36:26.985Z,20.27
2023-01-17T05:38:53.398Z,20.32
2023-01-17T05:41:19.725Z,20.37
2023-01-17T05:47:20.430Z,20.27
2023-01-17T05:49:46.778Z,20.25
2023-01-17T05:52:13.194Z,20.25
2023-01-17T05:54:39.518Z,20.24
2023-01-17T05:57:05.859Z,20.24
2023-01-17T05:59:37.517Z,20.22
2023-01-17T06:02:04.014Z,20.22
2023-01-17T06:04:30.437Z,20.23
2023-01-17T06:06:56.768Z,20.23
2023-01-17T06:09:23.133Z,20.24
2023-01-17T06:11:49.459Z,20.27
2023-01-17T06:14:15.796Z,20.28
2023-01-17T06:16:42.107Z,20.28
2023-01-17T06:19:09.451Z,20.26
2023-01-17T06:21:35.794Z,20.28
2023-01-17T06:24:04.089Z,20.29
2023-01-17T06:26:30.653Z,20.28
2023-01-17T06:28:56.983Z,20.30
2023-01-17T06:31:23.382Z,20.30
2023-01-17T06:33:49.738Z,20.28
2023-01-17T06:36:16.176Z,20.29
2023-01-17T06:38:42.494Z,20.30
2023-01-17T06:41:09.637Z,20.29
2023-01-17T06:43:35.979Z,20.28
2023-01-17T06:46:02.319Z,20.28
2023-01-17T06:48:28.638Z,20.29
2023-01-17T06:50:54.983Z,20.30
2023-01-17T06:53:21.308Z,20.29
2023-01-17T06:55:47.635Z,20.28
2023-01-17T06:58:14.012Z,20.26
2023-01-17T07:00:41.062Z,20.27
2023-01-17T07:03:08.870Z,20.29
2023-01-17T07:05:36.213Z,20.28
2023-01-17T07:08:02.551Z,20.29
2023-01-17T07:10:28.971Z,20.28
2023-01-17T07:12:59.639Z,20.28
2023-01-17T07:15:25.970Z,20.27
2023-01-17T07:17:52.272Z,20.26
2023-01-17T07:20:18.629Z,20.25
2023-01-17T07:22:45.007Z,20.25
2023-01-17T07:25:11.349Z,20.25
2023-01-17T07:27:37.657Z,20.25
2023-01-17T07:30:04.234Z,20.25
2023-01-17T07:32:30.561Z,20.26
2023-01-17T07:34:57.929Z,20.25
2023-01-17T07:37:25.887Z,20.31
2023-01-17T07:39:52.388Z,20.31
2023-01-17T07:42:18.707Z,20.28
2023-01-17T07:44:45.143Z,20.27
2023-01-17T07:47:11.522Z,20.25
2023-01-17T07:49:37.916Z,20.24
2023-01-17T07:52:06.243Z,20.20
2023-01-17T07:54:32.600Z,20.18
2023-01-17T07:56:58.937Z,20.18
2023-01-17T07:59:25.267Z,20.20
2023-01-17T08:01:51.709Z,20.18
2023-01-17T08:04:18.076Z,20.19
2023-01-17T08:06:47.368Z,20.17
2023-01-17T08:09:13.719Z,20.17
2023-01-17T08:11:40.034Z,20.16
2023-01-17T08:14:06.352Z,20.13
2023-01-17T08:16:32.830Z,20.12
2023-01-17T08:18:59.167Z,20.12
2023-01-17T08:21:25.495Z,20.13
2023-01-17T08:23:51.831Z,20.12
2023-01-17T08:26:22.139Z,20.13
2023-01-17T08:28:55.728Z,20.15
2023-01-17T08:31:22.119Z,20.16
2023-01-17T08:33:48.451Z,20.18
2023-01-17T08:36:14.794Z,20.19
2023-01-17T08:38:41.131Z,20.21
2023-01-17T08:41:07.488Z,20.07
2023-01-17T08:43:33.825Z,20.01
2023-01-17T08:46:00.768Z,20.07
2023-01-17T08:48:27.198Z,20.11
2023-01-17T08:50:53.557Z,20.17
2023-01-17T08:53:21.612Z,20.19
2023-01-17T08:55:47.992Z,20.19
2023-01-17T08:58:14.319Z,20.19
2023-01-17T09:00:40.693Z,20.20
2023-01-17T09:03:10.404Z,20.21
2023-01-17T09:05:36.779Z,20.22
2023-01-17T09:08:03.094Z,20.23
2023-01-17T09:10:29.416Z,20.24
2023-01-17T09:12:55.733Z,20.23
2023-01-17T09:15:22.066Z,20.23
2023-01-17T09:17:48.440Z,20.22
2023-01-17T09:20:14.775Z,20.17
2023-01-17T09:22:41.132Z,20.20
2023-01-17T09:25:07.559Z,20.24
2023-01-17T09:27:33.879Z,20.21
2023-01-17T09:30:00.197Z,20.24
2023-01-17T09:32:26.516Z,20.26
2023-01-17T09:34:52.855Z,20.26
2023-01-17T09:37:19.188Z,20.25
2023-01-17T09:39:45.502Z,20.25
2023-01-17T09:42:16.856Z,20.26
2023-01-17T09:44:44.107Z,20.25
2023-01-17T09:47:16.423Z,20.26
2023-01-17T09:49:43.710Z,20.25
2023-01-17T09:52:11.590Z,20.26
2023-01-17T09:54:38.396Z,20.25
2023-01-17T09:57:09.102Z,20.25
2023-01-17T10:00:07.782Z,20.26
2023-01-17T10:02:38.780Z,20.25
2023-01-17T10:05:16.835Z,20.25
2023-01-17T10:08:00.644Z,20.25
2023-01-17T10:10:39.011Z,20.24
2023-01-17T10:13:09.064Z,20.24
2023-01-17T10:15:38.119Z,20.23
2023-01-17T10:18:29.820Z,20.24
2023-01-17T10:21:00.097Z,20.25
2023-01-17T10:23:40.411Z,20.26
2023-01-17T10:26:08.075Z,20.26
2023-01-17T10:28:36.246Z,20.27
2023-01-17T10:31:04.052Z,20.28
2023-01-17T10:33:31.393Z,20.27
2023-01-17T10:36:02.356Z,20.28
2023-01-17T10:38:29.930Z,20.28
2023-01-17T10:41:03.923Z,20.30
2023-01-17T10:43:32.556Z,20.29
2023-01-17T10:45:58.914Z,20.27
2023-01-17T10:48:32.431Z,20.28
2023-01-17T10:50:59.445Z,20.28
2023-01-17T10:53:31.543Z,20.27
2023-01-17T10:55:57.956Z,20.27
2023-01-17T10:58:24.852Z,20.25
2023-01-17T11:01:00.681Z,20.26
2023-01-17T11:03:28.520Z,20.26
2023-01-17T11:06:13.883Z,19.92
2023-01-17T11:08:50.765Z,20.00
2023-01-17T11:11:17.129Z,20.09
2023-01-17T11:13:44.479Z,20.25
2023-01-17T11:16:10.936Z,20.15
2023-01-17T11:18:37.922Z,20.02
2023-01-17T11:21:11.273Z,20.02
2023-01-17T11:23:38.273Z,18.47
2023-01-17T11:26:05.929Z,17.93
2023-01-17T11:28:32.840Z,18.81
2023-01-17T11:30:59.916Z,19.35
2023-01-17T11:33:33.907Z,19.65
2023-01-17T11:36:00.240Z,19.79
2023-01-17T11:38:26.707Z,19.98
2023-01-17T11:41:15.893Z,20.07
2023-01-17T11:43:52.165Z,19.99
2023-01-17T11:46:18.622Z,19.95
2023-01-17T11:48:51.805Z,19.97
2023-01-17T11:51:22.670Z,20.03
2023-01-17T11:53:49.025Z,20.08
2023-01-17T11:56:18.994Z,20.07
2023-01-17T11:58:48.308Z,20.11
2023-01-17T12:01:33.181Z,20.09
2023-01-17T12:04:18.071Z,20.12
2023-01-17T12:06:57.183Z,20.13
2023-01-17T12:09:34.150Z,20.17
2023-01-17T12:12:24.825Z,20.18
2023-01-17T12:14:55.155Z,20.19
2023-01-17T12:17:34.556Z,20.20
2023-01-17T12:20:10.140Z,20.21
2023-01-17T12:22:39.934Z,20.22
2023-01-17T12:25:17.772Z,20.22
2023-01-17T12:27:57.462Z,20.21
2023-01-17T12:30:32.771Z,20.21
2023-01-17T12:33:12.077Z,20.21
2023-01-17T12:35:41.101Z,20.20
2023-01-17T12:38:18.091Z,20.22
2023-01-17T12:40:56.112Z,20.21
2023-01-17T12:43:27.254Z,20.21
2023-01-17T12:45:54.546Z,20.22
2023-01-17T12:48:21.095Z,20.22
2023-01-17T12:50:51.795Z,20.22
2023-01-17T12:53:30.334Z,20.24
2023-01-17T12:55:58.471Z,20.24
2023-01-17T12:58:25.455Z,20.23
2023-01-17T13:01:27.219Z,20.24
2023-01-17T13:04:07.889Z,20.24
2023-01-17T13:06:51.494Z,20.25
2023-01-17T13:09:18.738Z,20.26
2023-01-17T13:11:49.757Z,20.28
2023-01-17T13:14:16.482Z,20.29
2023-01-17T13:16:44.292Z,20.30
2023-01-17T13:19:29.636Z,20.29
2023-01-17T13:21:56.076Z,20.30
2023-01-17T13:24:25.820Z,20.29
2023-01-17T13:26:55.009Z,20.28
2023-01-17T13:29:21.718Z,20.29
2023-01-17T13:31:49.116Z,20.29
2023-01-17T13:34:35.134Z,20.31
2023-01-17T13:37:08.866Z,20.34
2023-01-17T13:39:41.236Z,20.35
2023-01-17T13:42:26.466Z,20.35
2023-01-17T13:44:52.811Z,20.36
2023-01-17T13:47:19.069Z,20.34
2023-01-17T13:49:47.540Z,20.34
2023-01-17T13:52:19.810Z,20.34
2023-01-17T13:55:15.327Z,20.33
2023-01-17T13:57:46.148Z,20.35
2023-01-17T14:00:16.344Z,20.35
2023-01-17T14:02:42.916Z,20.35
2023-01-17T14:05:15.083Z,20.04
2023-01-17T14:08:00.431Z,20.02
2023-01-17T14:10:28.967Z,20.19
2023-01-17T14:12:55.320Z,20.25
2023-01-17T14:15:22.584Z,20.29
2023-01-17T14:17:50.364Z,20.31
2023-01-17T14:20:17.334Z,20.33
2023-01-17T14:22:56.278Z,20.36
2023-01-17T14:25:27.954Z,20.36
2023-01-17T14:27:55.082Z,20.36
2023-01-17T14:30:28.376Z,20.36
2023-01-17T14:33:15.775Z,20.35
2023-01-17T14:35:49.679Z,20.35
2023-01-17T14:38:18.779Z,20.35
2023-01-17T14:40:49.198Z,20.36
2023-01-17T14:43:19.011Z,20.38
2023-01-17T14:45:45.351Z,20.38
2023-01-17T14:48:15.944Z,20.39
2023-01-17T14:50:42.725Z,20.39
2023-01-17T14:53:12.358Z,20.38
2023-01-17T14:55:39.143Z,20.38
2023-01-17T14:58:05.502Z,20.38
2023-01-17T15:00:34.876Z,20.38
2023-01-17T15:03:02.149Z,20.36
2023-01-17T15:05:28.686Z,20.38
2023-01-17T15:07:55.235Z,20.36
2023-01-17T15:10:23.014Z,20.37
2023-01-17T15:12:49.333Z,20.37
2023-01-17T15:15:32.229Z,20.39
2023-01-17T15:18:13.801Z,20.39
2023-01-17T15:20:41.393Z,20.39
2023-01-17T15:23:13.702Z,20.39
2023-01-17T15:25:40.023Z,20.38
2023-01-17T15:28:08.098Z,20.38
2023-01-17T15:30:34.465Z,20.36
2023-01-17T15:33:00.805Z,20.36
2023-01-17T15:35:28.256Z,20.37
2023-01-17T15:37:54.586Z,20.39
2023-01-17T15:40:21.753Z,20.38
2023-01-17T15:42:58.270Z,20.39
2023-01-17T15:45:27.218Z,20.38
2023-01-17T15:47:53.534Z,20.39
2023-01-17T15:50:19.782Z,20.39
2023-01-17T15:52:49.328Z,20.38
2023-01-17T15:55:22.426Z,20.39
2023-01-17T15:57:48.875Z,20.38
2023-01-17T16:00:21.462Z,20.38
2023-01-17T16:02:58.649Z,20.38
2023-01-17T16:05:30.789Z,20.38
2023-01-17T16:07:57.827Z,20.37
2023-01-17T16:10:24.796Z,20.38
2023-01-17T16:12:52.570Z,20.39
2023-01-17T16:15:20.168Z,20.38
2023-01-17T16:17:47.410Z,20.39
2023-01-17T16:20:20.214Z,20.38
2023-01-17T16:22:46.775Z,20.36
2023-01-17T16:25:13.881Z,20.36
2023-01-17T16:27:41.470Z,20.35
2023-01-17T16:30:08.374Z,20.36
2023-01-17T16:32:34.757Z,20.34
2023-01-17T16:35:01.087Z,20.37
2023-01-17T16:37:27.408Z,20.38
2023-01-17T16:39:53.735Z,20.38
2023-01-17T16:42:20.059Z,20.38
2023-01-17T16:44:46.386Z,20.36
2023-01-17T16:47:12.718Z,20.36
2023-01-17T16:49:39.043Z,20.35
2023-01-17T16:52:05.388Z,20.34
2023-01-17T16:54:31.718Z,20.34
2023-01-17T16:56:58.075Z,20.34
2023-01-17T16:59:24.775Z,20.34
2023-01-17T17:01:52.998Z,20.34
2023-01-17T17:04:19.436Z,20.37
2023-01-17T17:06:46.119Z,20.38
2023-01-17T17:09:12.463Z,20.37
2023-01-17T17:11:38.830Z,20.38
2023-01-17T17:14:05.186Z,20.37
2023-01-17T17:16:32.699Z,20.32
2023-01-17T17:18:59.914Z,20.31
2023-01-17T17:21:26.334Z,20.32
2023-01-17T17:23:56.588Z,20.34
2023-01-17T17:26:23.504Z,20.35
2023-01-17T17:28:53.316Z,20.38
2023-01-17T17:31:19.688Z,20.39
2023-01-17T17:33:46.057Z,20.39
2023-01-17T17:36:12.528Z,20.40
2023-01-17T17:38:50.549Z,20.41
2023-01-17T17:41:17.951Z,20.40
2023-01-17T17:43:44.286Z,20.41
2023-01-17T17:46:10.668Z,20.46
2023-01-17T17:48:37.016Z,20.57
2023-01-17T17:51:04.566Z,20.54
2023-01-17T17:53:30.877Z,20.54
2023-01-17T17:56:01.711Z,20.52
2023-01-17T17:58:28.044Z,20.51
2023-01-17T18:00:54.400Z,20.54
2023-01-17T18:03:20.771Z,20.51
2023-01-17T18:05:47.128Z,20.45
2023-01-17T18:08:13.492Z,20.48
2023-01-17T18:10:40.866Z,20.43
2023-01-17T18:13:07.227Z,20.34
2023-01-17T18:15:33.551Z,20.37
2023-01-17T18:17:59.866Z,20.42
2023-01-17T18:20:26.671Z,20.43
2023-01-17T18:22:53.541Z,20.43
2023-01-17T18:25:19.862Z,20.04
2023-01-17T18:27:46.182Z,19.98
2023-01-17T18:30:12.567Z,19.90
2023-01-17T18:32:39.012Z,19.81
2023-01-17T18:35:05.449Z,19.71
2023-01-17T18:37:33.064Z,19.63
2023-01-17T18:39:59.378Z,19.59
2023-01-17T18:42:27.318Z,19.57
2023-01-17T18:44:53.633Z,19.54
2023-01-17T18:47:19.950Z,19.53
2023-01-17T18:49:46.273Z,19.50
2023-01-17T18:52:12.592Z,19.46
2023-01-17T18:54:38.923Z,19.42
2023-01-17T18:57:05.237Z,19.41
2023-01-17T18:59:31.581Z,19.61
2023-01-17T19:01:58.683Z,19.85
2023-01-17T19:04:25.007Z,19.98
2023-01-17T19:06:51.314Z,20.01
2023-01-17T19:09:17.647Z,20.02
2023-01-17T19:11:45.011Z,20.04
2023-01-17T19:14:11.887Z,20.05
2023-01-17T19:16:39.429Z,20.07
2023-01-17T19:19:07.047Z,20.06
2023-01-17T19:21:33.396Z,20.09
2023-01-17T19:23:59.717Z,20.09
2023-01-17T19:26:27.235Z,20.14
2023-01-17T19:28:53.820Z,20.14
2023-01-17T19:31:21.159Z,20.15
2023-01-17T19:33:47.985Z,20.16
2023-01-17T19:36:16.979Z,20.17
2023-01-17T19:38:52.281Z,20.17
2023-01-17T19:41:27.256Z,20.19
2023-01-17T19:43:54.407Z,20.20
2023-01-17T19:46:20.743Z,20.20
2023-01-17T19:48:47.083Z,20.21
2023-01-17T19:51:13.674Z,20.20
2023-01-17T19:53:40.185Z,20.21
2023-01-17T19:56:07.231Z,20.25
2023-01-17T19:58:33.741Z,20.30
2023-01-17T20:01:14.212Z,20.33
2023-01-17T20:03:42.351Z,20.28
2023-01-17T20:06:08.746Z,20.26
2023-01-17T20:08:35.209Z,20.26
2023-01-17T20:11:02.245Z,20.25
2023-01-17T20:13:28.577Z,20.25
2023-01-17T20:15:54.911Z,20.25
2023-01-17T20:18:22.426Z,20.27
2023-01-17T20:20:57.110Z,20.26
2023-01-17T20:23:23.883Z,20.28
2023-01-17T20:25:58.874Z,20.27
2023-01-17T20:28:26.637Z,20.29
2023-01-17T20:30:53.586Z,20.28
2023-01-17T20:33:20.395Z,20.28
2023-01-17T20:35:46.774Z,20.26
2023-01-17T20:38:13.098Z,20.27
2023-01-17T20:40:39.436Z,20.26
2023-01-17T20:43:06.122Z,20.27
2023-01-17T20:45:32.552Z,20.28
2023-01-17T20:47:59.213Z,20.27
2023-01-17T20:50:25.694Z,20.26
2023-01-17T20:52:52.171Z,20.27
2023-01-17T20:55:18.499Z,20.25
2023-01-17T20:57:44.831Z,20.26
2023-01-17T21:00:12.180Z,20.27
2023-01-17T21:02:38.603Z,20.26
2023-01-17T21:05:05.166Z,20.27
2023-01-17T21:07:31.516Z,20.28
2023-01-17T21:09:57.896Z,20.27
2023-01-17T21:12:24.250Z,20.27
2023-01-17T21:14:51.071Z,20.27
2023-01-17T21:17:17.433Z,20.27
2023-01-17T21:19:43.774Z,20.25
2023-01-17T21:22:11.128Z,20.25
2023-01-17T21:24:37.479Z,20.25
2023-01-17T21:27:03.803Z,20.24
2023-01-17T21:29:31.508Z,20.25
2023-01-17T21:31:57.839Z,20.25
2023-01-17T21:34:25.531Z,20.27
2023-01-17T21:36:51.988Z,20.27
2023-01-17T21:39:18.380Z,20.27
2023-01-17T21:41:45.704Z,20.27
2023-01-17T21:44:13.222Z,20.24
2023-01-17T21:46:39.903Z,20.24
2023-01-17T21:49:06.491Z,20.23
2023-01-17T21:51:52.867Z,20.21
2023-01-17T21:54:19.501Z,20.21
2023-01-17T21:57:04.306Z,20.20
2023-01-17T21:59:30.863Z,20.19
2023-01-17T22:01:58.158Z,20.19
2023-01-17T22:04:25.669Z,20.19
2023-01-17T22:06:51.990Z,20.18
2023-01-17T22:09:18.374Z,20.19
2023-01-17T22:11:44.716Z,20.17
2023-01-17T22:14:11.082Z,20.18
2023-01-17T22:16:37.399Z,20.19
2023-01-17T22:19:04.299Z,20.21
2023-01-17T22:21:30.631Z,20.22
2023-01-17T22:23:57.752Z,20.20
2023-01-17T22:26:24.902Z,20.20
2023-01-17T22:28:51.255Z,20.20
2023-01-17T22:31:20.881Z,20.19
2023-01-17T22:33:47.362Z,20.17
2023-01-17T22:36:13.988Z,20.17
2023-01-17T22:38:40.729Z,20.15
2023-01-17T22:41:10.425Z,20.15
2023-01-17T22:43:37.363Z,20.14
2023-01-17T22:46:06.855Z,20.14
2023-01-17T22:48:33.598Z,20.14
2023-01-17T22:51:02.168Z,20.14
2023-01-17T22:53:28.887Z,20.15
2023-01-17T22:56:02.243Z,20.15
2023-01-17T22:58:28.762Z,20.16
2023-01-17T23:00:57.361Z,20.16
2023-01-17T23:03:24.156Z,20.17
2023-01-17T23:05:50.550Z,20.15
2023-01-17T23:08:16.868Z,20.15
2023-01-17T23:11:02.077Z,20.14
2023-01-17T23:13:28.438Z,20.15
2023-01-17T23:16:13.304Z,20.12
2023-01-17T23:18:58.526Z,20.12
2023-01-17T23:21:44.815Z,20.10
2023-01-17T23:24:11.137Z,20.11
2023-01-17T23:26:37.476Z,20.11
2023-01-17T23:29:03.800Z,20.09
2023-01-17T23:31:30.157Z,20.11
2023-01-17T23:33:56.552Z,20.11
2023-01-17T23:36:22.879Z,20.11
2023-01-17T23:38:49.199Z,20.13
2023-01-17T23:41:34.377Z,20.12
2023-01-17T23:44:00.695Z,20.11
2023-01-17T23:46:27.198Z,20.12
2023-01-17T23:48:54.779Z,20.11
2023-01-17T23:51:21.130Z,20.09
2023-01-17T23:53:47.473Z,20.09
2023-01-17T23:56:14.970Z,20.10
2023-01-17T23:58:41.289Z,20.08
